createdAt,value
2023-03-01T00:00:33.138Z,99900.94
2023-03-01T00:11:07.519Z,99898.91
2023-03-01T00:21:31.767Z,99903.96
2023-03-01T00:31:56.105Z,99898.30
2023-03-01T00:42:20.341Z,99889.43
2023-03-01T00:52:44.751Z,99884.00
2023-03-01T01:03:08.913Z,99875.51
2023-03-01T01:13:33.899Z,99879.14
2023-03-01T01:23:59.736Z,99873.97
2023-03-01T01:34:24.321Z,99863.00
2023-03-01T01:44:49.399Z,99856.21
2023-03-01T01:55:21.371Z,99843.58
2023-03-01T02:05:55.559Z,99840.42
2023-03-01T02:16:20.242Z,99832.45
2023-03-01T02:26:50.819Z,99824.86
2023-03-01T02:37:21.953Z,99824.58
2023-03-01T02:47:46.296Z,99825.17
2023-03-01T02:58:10.892Z,99831.95
2023-03-01T03:08:35.075Z,99820.17
2023-03-01T03:19:05.401Z,99823.33
2023-03-01T03:29:29.660Z,99824.70
2023-03-01T03:39:55.183Z,99819.89
2023-03-01T03:50:19.975Z,99816.66
2023-03-01T04:00:45.428Z,99803.83
2023-03-01T04:11:27.839Z,99795.69
2023-03-01T04:21:52.160Z,99807.06
2023-03-01T04:32:17.065Z,99818.46
2023-03-01T04:42:41.340Z,99811.74
2023-03-01T04:53:05.545Z,99808.61
2023-03-01T05:03:29.763Z,99810.70
2023-03-01T05:13:55.390Z,99801.15
2023-03-01T05:24:19.628Z,99788.40
2023-03-01T05:34:44.492Z,99795.56
2023-03-01T05:45:11.169Z,99796.70
2023-03-01T05:55:36.132Z,99797.52
2023-03-01T06:06:00.548Z,99790.85
2023-03-01T06:16:24.759Z,99807.43
2023-03-01T06:26:48.947Z,99813.49
2023-03-01T06:37:13.165Z,99821.23
2023-03-01T06:47:37.435Z,99812.79
2023-03-01T06:58:03.277Z,99812.36
2023-03-01T07:08:27.591Z,99817.23
2023-03-01T07:18:52.623Z,99808.30
2023-03-01T07:29:18.492Z,99807.95
2023-03-01T07:39:43.224Z,99802.70
2023-03-01T07:50:10.910Z,99783.73
2023-03-01T08:00:35.174Z,99757.36
2023-03-01T08:11:00.795Z,99754.70
2023-03-01T08:21:25.736Z,99754.80
2023-03-01T08:31:50.712Z,99751.10
2023-03-01T08:42:15.097Z,99749.41
2023-03-01T08:52:40.160Z,99742.80
2023-03-01T09:03:05.326Z,99731.75
2023-03-01T09:13:31.541Z,99725.09
2023-03-01T09:23:58.252Z,99725.48
2023-03-01T09:34:23.643Z,99720.66
2023-03-01T09:44:52.624Z,99721.25
2023-03-01T09:55:27.636Z,99724.02
2023-03-01T10:06:06.475Z,99719.55
2023-03-01T10:16:35.305Z,99714.42
2023-03-01T10:27:04.123Z,99701.23
2023-03-01T10:37:28.889Z,99684.14
2023-03-01T10:48:06.682Z,99681.88
2023-03-01T10:58:31.951Z,99678.65
2023-03-01T11:08:57.410Z,99667.09
2023-03-01T11:19:23.283Z,99654.59
2023-03-01T11:29:53.322Z,99633.31
2023-03-01T11:40:22.829Z,99629.48
2023-03-01T11:50:49.237Z,99617.48
2023-03-01T12:01:33.738Z,99611.95
2023-03-01T12:12:13.688Z,99608.14
2023-03-01T12:22:53.236Z,99594.41
2023-03-01T12:33:31.035Z,99581.27
2023-03-01T12:44:07.416Z,99570.36
2023-03-01T12:54:34.002Z,99552.86
2023-03-01T13:05:24.569Z,99542.23
2023-03-01T13:15:51.711Z,99539.91
2023-03-01T13:26:17.862Z,99540.26
2023-03-01T13:36:50.584Z,99524.95
2023-03-01T13:47:18.862Z,99512.20
2023-03-01T13:57:47.398Z,99511.59
2023-03-01T14:08:24.640Z,99510.27
2023-03-01T14:18:57.498Z,99502.94
2023-03-01T14:29:35.050Z,99487.83
2023-03-01T14:40:01.380Z,99473.31
2023-03-01T14:50:29.392Z,99470.34
2023-03-01T15:00:56.007Z,99474.35
2023-03-01T15:11:24.895Z,99472.47
2023-03-01T15:21:50.207Z,99467.58
2023-03-01T15:32:28.687Z,99469.46
2023-03-01T15:42:52.997Z,99465.21
2023-03-01T15:53:18.432Z,99455.13
2023-03-01T16:03:43.295Z,99462.13
2023-03-01T16:14:09.555Z,99467.73
2023-03-01T16:24:36.307Z,99462.92
2023-03-01T16:35:00.509Z,99462.21
2023-03-01T16:45:25.573Z,99470.02
2023-03-01T16:55:56.574Z,99485.13
2023-03-01T17:06:25.136Z,99506.02
2023-03-01T17:16:49.424Z,99515.23
2023-03-01T17:27:15.496Z,99511.05
2023-03-01T17:37:52.829Z,99515.11
2023-03-01T17:48:17.426Z,99511.63
2023-03-01T17:58:42.558Z,99515.72
2023-03-01T18:09:08.533Z,99512.88
2023-03-01T18:19:33.923Z,99508.33
2023-03-01T18:29:59.078Z,99498.05
2023-03-01T18:40:24.016Z,99496.28
2023-03-01T18:50:48.889Z,99497.60
2023-03-01T19:01:16.222Z,99495.95
2023-03-01T19:11:40.486Z,99497.70
2023-03-01T19:22:06.374Z,99509.71
2023-03-01T19:32:32.369Z,99511.69
2023-03-01T19:42:56.679Z,99510.81
2023-03-01T19:53:21.704Z,99508.87
2023-03-01T20:03:46.507Z,99495.79
2023-03-01T20:14:14.067Z,99501.66
2023-03-01T20:24:38.371Z,99504.67
2023-03-01T20:35:03.627Z,99503.42
2023-03-01T20:45:28.386Z,99511.78
2023-03-01T20:55:52.612Z,99512.92
2023-03-01T21:06:17.277Z,99512.23
2023-03-01T21:16:45.048Z,99516.88
2023-03-01T21:27:09.637Z,99512.35
2023-03-01T21:37:33.853Z,99503.55
2023-03-01T21:47:58.052Z,99503.61
2023-03-01T21:58:22.817Z,99503.46
2023-03-01T22:08:48.099Z,99495.80
2023-03-01T22:19:13.609Z,99491.30
2023-03-01T22:29:37.986Z,99499.79
2023-03-01T22:40:02.842Z,99504.10
2023-03-01T22:50:27.151Z,99499.70
2023-03-01T23:00:51.352Z,99493.63
2023-03-01T23:11:17.458Z,99497.80
2023-03-01T23:21:45.968Z,99494.99
2023-03-01T23:32:11.006Z,99495.10
2023-03-01T23:42:35.244Z,99498.53
2023-03-01T23:52:59.424Z,99494.28
